sensor_id;sensor_type;location;lat;lon;timestamp;P1;durP1;ratioP1;P2;durP2;ratioP2
40745;SDS011;26454;51.164;4.488;2023-02-28T00:00:30;13.30;;;11.68;;
40745;SDS011;26454;51.164;4.488;2023-02-28T00:02:57;19.33;;;10.85;;
40745;SDS011;26454;51.164;4.488;2023-02-28T00:05:23;12.27;;;10.88;;
40745;SDS011;26454;51.164;4.488;2023-02-28T00:07:50;17.77;;;11.25;;
40745;SDS011;26454;51.164;4.488;2023-02-28T00:12:47;14.93;;;11.05;;
40745;SDS011;26454;51.164;4.488;2023-02-28T00:15:13;18.00;;;11.13;;
40745;SDS011;26454;51.164;4.488;2023-02-28T00:17:39;17.33;;;10.82;;
40745;SDS011;26454;51.164;4.488;2023-02-28T00:20:06;16.63;;;11.38;;
40745;SDS011;26454;51.164;4.488;2023-02-28T00:22:33;18.75;;;11.40;;
40745;SDS011;26454;51.164;4.488;2023-02-28T00:24:59;15.52;;;11.38;;
40745;SDS011;26454;51.164;4.488;2023-02-28T00:27:25;13.77;;;11.63;;
40745;SDS011;26454;51.164;4.488;2023-02-28T00:29:51;19.33;;;11.23;;
40745;SDS011;26454;51.164;4.488;2023-02-28T00:32:19;14.52;;;11.20;;
40745;SDS011;26454;51.164;4.488;2023-02-28T00:34:45;13.38;;;10.57;;
40745;SDS011;26454;51.164;4.488;2023-02-28T00:37:11;14.15;;;12.20;;
40745;SDS011;26454;51.164;4.488;2023-02-28T00:39:37;14.85;;;10.90;;
40745;SDS011;26454;51.164;4.488;2023-02-28T00:42:04;13.07;;;11.02;;
40745;SDS011;26454;51.164;4.488;2023-02-28T00:44:31;15.23;;;11.60;;
40745;SDS011;26454;51.164;4.488;2023-02-28T00:46:57;22.38;;;12.10;;
40745;SDS011;26454;51.164;4.488;2023-02-28T00:49:24;17.50;;;11.50;;
40745;SDS011;26454;51.164;4.488;2023-02-28T00:51:50;16.85;;;11.50;;
40745;SDS011;26454;51.164;4.488;2023-02-28T00:54:16;17.40;;;11.65;;
40745;SDS011;26454;51.164;4.488;2023-02-28T00:56:42;15.65;;;11.63;;
40745;SDS011;26454;51.164;4.488;2023-02-28T00:59:08;16.58;;;11.50;;
40745;SDS011;26454;51.164;4.488;2023-02-28T01:01:34;17.73;;;12.52;;
40745;SDS011;26454;51.164;4.488;2023-02-28T01:04:00;16.77;;;11.52;;
40745;SDS011;26454;51.164;4.488;2023-02-28T01:06:26;16.25;;;11.88;;
40745;SDS011;26454;51.164;4.488;2023-02-28T01:08:53;21.88;;;14.52;;
40745;SDS011;26454;51.164;4.488;2023-02-28T01:11:19;21.77;;;12.52;;
40745;SDS011;26454;51.164;4.488;2023-02-28T01:13:45;16.33;;;13.68;;
40745;SDS011;26454;51.164;4.488;2023-02-28T01:16:12;19.17;;;12.85;;
40745;SDS011;26454;51.164;4.488;2023-02-28T01:18:38;16.80;;;12.85;;
40745;SDS011;26454;51.164;4.488;2023-02-28T01:21:06;19.52;;;13.60;;
40745;SDS011;26454;51.164;4.488;2023-02-28T01:23:33;18.40;;;13.03;;
40745;SDS011;26454;51.164;4.488;2023-02-28T01:26:05;21.20;;;13.60;;
40745;SDS011;26454;51.164;4.488;2023-02-28T01:28:31;21.70;;;14.00;;
40745;SDS011;26454;51.164;4.488;2023-02-28T01:30:57;20.02;;;13.50;;
40745;SDS011;26454;51.164;4.488;2023-02-28T01:33:23;17.88;;;12.25;;
40745;SDS011;26454;51.164;4.488;2023-02-28T01:35:56;18.42;;;13.05;;
40745;SDS011;26454;51.164;4.488;2023-02-28T01:38:23;13.48;;;11.77;;
40745;SDS011;26454;51.164;4.488;2023-02-28T01:40:50;25.08;;;13.60;;
40745;SDS011;26454;51.164;4.488;2023-02-28T01:43:21;19.13;;;12.80;;
40745;SDS011;26454;51.164;4.488;2023-02-28T01:45:48;16.98;;;11.68;;
40745;SDS011;26454;51.164;4.488;2023-02-28T01:48:14;20.95;;;13.55;;
40745;SDS011;26454;51.164;4.488;2023-02-28T01:50:42;16.60;;;11.98;;
40745;SDS011;26454;51.164;4.488;2023-02-28T01:53:10;18.05;;;13.20;;
40745;SDS011;26454;51.164;4.488;2023-02-28T01:58:04;17.08;;;13.13;;
40745;SDS011;26454;51.164;4.488;2023-02-28T02:00:32;17.00;;;13.73;;
40745;SDS011;26454;51.164;4.488;2023-02-28T02:02:59;19.88;;;13.27;;
40745;SDS011;26454;51.164;4.488;2023-02-28T02:05:27;16.05;;;12.93;;
40745;SDS011;26454;51.164;4.488;2023-02-28T02:07:56;17.38;;;12.95;;
40745;SDS011;26454;51.164;4.488;2023-02-28T02:13:14;22.17;;;13.68;;
40745;SDS011;26454;51.164;4.488;2023-02-28T02:18:35;15.45;;;12.23;;
40745;SDS011;26454;51.164;4.488;2023-02-28T02:21:15;18.42;;;14.48;;
40745;SDS011;26454;51.164;4.488;2023-02-28T02:23:54;15.23;;;12.43;;
40745;SDS011;26454;51.164;4.488;2023-02-28T02:26:30;17.48;;;11.98;;
40745;SDS011;26454;51.164;4.488;2023-02-28T02:29:08;15.57;;;12.85;;
40745;SDS011;26454;51.164;4.488;2023-02-28T02:31:47;14.98;;;13.20;;
40745;SDS011;26454;51.164;4.488;2023-02-28T02:34:20;15.20;;;12.50;;
40745;SDS011;26454;51.164;4.488;2023-02-28T02:39:30;21.55;;;13.85;;
40745;SDS011;26454;51.164;4.488;2023-02-28T02:41:58;19.20;;;13.07;;
40745;SDS011;26454;51.164;4.488;2023-02-28T02:44:27;17.35;;;12.90;;
40745;SDS011;26454;51.164;4.488;2023-02-28T02:49:32;17.55;;;13.95;;
40745;SDS011;26454;51.164;4.488;2023-02-28T02:52:01;18.10;;;13.10;;
40745;SDS011;26454;51.164;4.488;2023-02-28T02:54:30;18.02;;;12.85;;
40745;SDS011;26454;51.164;4.488;2023-02-28T02:56:58;18.88;;;14.35;;
40745;SDS011;26454;51.164;4.488;2023-02-28T02:59:25;19.33;;;13.95;;
40745;SDS011;26454;51.164;4.488;2023-02-28T03:01:55;17.45;;;12.77;;
40745;SDS011;26454;51.164;4.488;2023-02-28T03:04:23;19.90;;;13.57;;
40745;SDS011;26454;51.164;4.488;2023-02-28T03:06:51;15.90;;;13.00;;
40745;SDS011;26454;51.164;4.488;2023-02-28T03:09:21;18.23;;;14.70;;
40745;SDS011;26454;51.164;4.488;2023-02-28T03:11:48;19.20;;;14.48;;
40745;SDS011;26454;51.164;4.488;2023-02-28T03:14:19;27.40;;;13.50;;
40745;SDS011;26454;51.164;4.488;2023-02-28T03:19:31;15.50;;;13.05;;
40745;SDS011;26454;51.164;4.488;2023-02-28T03:22:12;25.73;;;14.05;;
40745;SDS011;26454;51.164;4.488;2023-02-28T03:24:49;20.95;;;13.13;;
40745;SDS011;26454;51.164;4.488;2023-02-28T03:29:47;15.35;;;12.77;;
40745;SDS011;26454;51.164;4.488;2023-02-28T03:32:19;17.83;;;12.23;;
40745;SDS011;26454;51.164;4.488;2023-02-28T03:34:49;17.60;;;13.27;;
40745;SDS011;26454;51.164;4.488;2023-02-28T03:37:18;19.85;;;14.85;;
40745;SDS011;26454;51.164;4.488;2023-02-28T03:39:47;14.18;;;11.98;;
40745;SDS011;26454;51.164;4.488;2023-02-28T03:42:18;16.80;;;12.93;;
40745;SDS011;26454;51.164;4.488;2023-02-28T03:44:48;15.57;;;12.93;;
40745;SDS011;26454;51.164;4.488;2023-02-28T03:47:16;23.48;;;13.45;;
40745;SDS011;26454;51.164;4.488;2023-02-28T03:49:45;19.40;;;13.55;;
40745;SDS011;26454;51.164;4.488;2023-02-28T03:52:13;19.83;;;13.90;;
40745;SDS011;26454;51.164;4.488;2023-02-28T03:54:42;17.58;;;12.75;;
40745;SDS011;26454;51.164;4.488;2023-02-28T03:57:12;14.60;;;12.23;;
40745;SDS011;26454;51.164;4.488;2023-02-28T03:59:43;20.40;;;12.25;;
40745;SDS011;26454;51.164;4.488;2023-02-28T04:02:10;16.98;;;12.77;;
40745;SDS011;26454;51.164;4.488;2023-02-28T04:04:37;15.93;;;12.25;;
40745;SDS011;26454;51.164;4.488;2023-02-28T04:07:04;15.15;;;11.73;;
40745;SDS011;26454;51.164;4.488;2023-02-28T04:09:30;15.35;;;12.95;;
40745;SDS011;26454;51.164;4.488;2023-02-28T04:11:56;16.63;;;11.70;;
40745;SDS011;26454;51.164;4.488;2023-02-28T04:14:24;20.00;;;11.63;;
40745;SDS011;26454;51.164;4.488;2023-02-28T04:16:50;18.27;;;14.30;;
40745;SDS011;26454;51.164;4.488;2023-02-28T04:19:17;18.98;;;11.60;;
40745;SDS011;26454;51.164;4.488;2023-02-28T04:21:44;12.98;;;11.55;;
40745;SDS011;26454;51.164;4.488;2023-02-28T04:24:12;19.88;;;11.80;;
40745;SDS011;26454;51.164;4.488;2023-02-28T04:26:39;17.92;;;12.35;;
40745;SDS011;26454;51.164;4.488;2023-02-28T04:29:06;16.50;;;11.77;;
40745;SDS011;26454;51.164;4.488;2023-02-28T04:31:33;16.42;;;12.35;;
40745;SDS011;26454;51.164;4.488;2023-02-28T04:33:59;13.70;;;11.90;;
40745;SDS011;26454;51.164;4.488;2023-02-28T04:36:25;15.60;;;12.23;;
40745;SDS011;26454;51.164;4.488;2023-02-28T04:38:52;13.07;;;11.25;;
40745;SDS011;26454;51.164;4.488;2023-02-28T04:41:18;18.38;;;11.60;;
40745;SDS011;26454;51.164;4.488;2023-02-28T04:43:44;15.25;;;12.27;;
40745;SDS011;26454;51.164;4.488;2023-02-28T04:46:10;19.98;;;11.30;;
40745;SDS011;26454;51.164;4.488;2023-02-28T04:48:37;15.05;;;11.32;;
40745;SDS011;26454;51.164;4.488;2023-02-28T04:51:04;14.55;;;11.98;;
40745;SDS011;26454;51.164;4.488;2023-02-28T04:53:31;16.20;;;11.50;;
40745;SDS011;26454;51.164;4.488;2023-02-28T04:55:57;15.85;;;11.15;;
40745;SDS011;26454;51.164;4.488;2023-02-28T04:58:23;20.60;;;13.45;;
40745;SDS011;26454;51.164;4.488;2023-02-28T05:00:50;14.13;;;10.50;;
40745;SDS011;26454;51.164;4.488;2023-02-28T05:03:17;18.10;;;12.20;;
40745;SDS011;26454;51.164;4.488;2023-02-28T05:05:43;18.98;;;11.88;;
40745;SDS011;26454;51.164;4.488;2023-02-28T05:08:09;14.75;;;11.73;;
40745;SDS011;26454;51.164;4.488;2023-02-28T05:10:36;15.43;;;10.88;;
40745;SDS011;26454;51.164;4.488;2023-02-28T05:13:02;13.60;;;11.32;;
40745;SDS011;26454;51.164;4.488;2023-02-28T05:15:28;14.55;;;10.30;;
40745;SDS011;26454;51.164;4.488;2023-02-28T05:17:54;14.18;;;10.50;;
40745;SDS011;26454;51.164;4.488;2023-02-28T05:20:20;13.98;;;11.30;;
40745;SDS011;26454;51.164;4.488;2023-02-28T05:22:47;17.65;;;11.55;;
40745;SDS011;26454;51.164;4.488;2023-02-28T05:25:15;12.43;;;10.48;;
40745;SDS011;26454;51.164;4.488;2023-02-28T05:27:42;12.80;;;10.13;;
40745;SDS011;26454;51.164;4.488;2023-02-28T05:30:08;14.50;;;10.07;;
40745;SDS011;26454;51.164;4.488;2023-02-28T05:32:37;17.20;;;11.52;;
40745;SDS011;26454;51.164;4.488;2023-02-28T05:35:03;12.93;;;10.10;;
40745;SDS011;26454;51.164;4.488;2023-02-28T05:37:30;15.48;;;11.23;;
40745;SDS011;26454;51.164;4.488;2023-02-28T05:39:56;17.30;;;11.57;;
40745;SDS011;26454;51.164;4.488;2023-02-28T05:42:23;16.58;;;10.57;;
40745;SDS011;26454;51.164;4.488;2023-02-28T05:44:49;17.65;;;10.93;;
40745;SDS011;26454;51.164;4.488;2023-02-28T05:47:16;13.57;;;10.45;;
40745;SDS011;26454;51.164;4.488;2023-02-28T05:49:42;13.25;;;10.55;;
40745;SDS011;26454;51.164;4.488;2023-02-28T05:52:09;15.25;;;10.80;;
40745;SDS011;26454;51.164;4.488;2023-02-28T05:54:35;15.52;;;11.57;;
40745;SDS011;26454;51.164;4.488;2023-02-28T05:57:01;14.60;;;10.20;;
40745;SDS011;26454;51.164;4.488;2023-02-28T05:59:28;16.05;;;10.85;;
40745;SDS011;26454;51.164;4.488;2023-02-28T06:01:54;14.40;;;9.20;;
40745;SDS011;26454;51.164;4.488;2023-02-28T06:04:20;23.08;;;12.25;;
40745;SDS011;26454;51.164;4.488;2023-02-28T06:06:47;11.38;;;9.38;;
40745;SDS011;26454;51.164;4.488;2023-02-28T06:09:13;16.42;;;10.15;;
40745;SDS011;26454;51.164;4.488;2023-02-28T06:11:40;14.80;;;10.93;;
40745;SDS011;26454;51.164;4.488;2023-02-28T06:14:06;18.52;;;11.00;;
40745;SDS011;26454;51.164;4.488;2023-02-28T06:16:33;13.65;;;9.25;;
40745;SDS011;26454;51.164;4.488;2023-02-28T06:19:00;17.27;;;9.98;;
40745;SDS011;26454;51.164;4.488;2023-02-28T06:21:27;19.63;;;10.00;;
40745;SDS011;26454;51.164;4.488;2023-02-28T06:23:53;11.70;;;9.63;;
40745;SDS011;26454;51.164;4.488;2023-02-28T06:26:20;13.07;;;10.32;;
40745;SDS011;26454;51.164;4.488;2023-02-28T06:28:46;12.73;;;9.82;;
40745;SDS011;26454;51.164;4.488;2023-02-28T06:31:13;12.52;;;9.02;;
40745;SDS011;26454;51.164;4.488;2023-02-28T06:33:40;14.05;;;10.77;;
40745;SDS011;26454;51.164;4.488;2023-02-28T06:36:07;17.20;;;9.88;;
40745;SDS011;26454;51.164;4.488;2023-02-28T06:38:34;12.95;;;9.85;;
40745;SDS011;26454;51.164;4.488;2023-02-28T06:41:00;15.00;;;9.88;;
40745;SDS011;26454;51.164;4.488;2023-02-28T06:43:27;17.00;;;10.95;;
40745;SDS011;26454;51.164;4.488;2023-02-28T06:45:55;15.75;;;10.30;;
40745;SDS011;26454;51.164;4.488;2023-02-28T06:48:21;18.88;;;10.38;;
40745;SDS011;26454;51.164;4.488;2023-02-28T06:50:47;18.92;;;11.07;;
40745;SDS011;26454;51.164;4.488;2023-02-28T06:53:13;14.20;;;10.48;;
40745;SDS011;26454;51.164;4.488;2023-02-28T06:55:40;14.63;;;10.18;;
40745;SDS011;26454;51.164;4.488;2023-02-28T06:58:06;13.85;;;9.95;;
40745;SDS011;26454;51.164;4.488;2023-02-28T07:00:42;12.30;;;10.23;;
40745;SDS011;26454;51.164;4.488;2023-02-28T07:03:09;16.63;;;10.18;;
40745;SDS011;26454;51.164;4.488;2023-02-28T07:05:35;13.77;;;10.25;;
40745;SDS011;26454;51.164;4.488;2023-02-28T07:08:03;16.38;;;11.35;;
40745;SDS011;26454;51.164;4.488;2023-02-28T07:10:29;16.95;;;10.27;;
40745;SDS011;26454;51.164;4.488;2023-02-28T07:12:55;17.88;;;10.48;;
40745;SDS011;26454;51.164;4.488;2023-02-28T07:15:22;16.20;;;9.75;;
40745;SDS011;26454;51.164;4.488;2023-02-28T07:17:48;16.20;;;11.43;;
40745;SDS011;26454;51.164;4.488;2023-02-28T07:20:14;17.25;;;9.80;;
40745;SDS011;26454;51.164;4.488;2023-02-28T07:22:42;14.00;;;9.27;;
40745;SDS011;26454;51.164;4.488;2023-02-28T07:25:24;14.05;;;9.38;;
40745;SDS011;26454;51.164;4.488;2023-02-28T07:27:55;11.82;;;9.38;;
40745;SDS011;26454;51.164;4.488;2023-02-28T07:30:25;17.88;;;8.88;;
40745;SDS011;26454;51.164;4.488;2023-02-28T07:32:53;12.75;;;8.73;;
40745;SDS011;26454;51.164;4.488;2023-02-28T07:35:21;16.83;;;9.32;;
40745;SDS011;26454;51.164;4.488;2023-02-28T07:37:47;12.60;;;8.73;;
40745;SDS011;26454;51.164;4.488;2023-02-28T07:40:14;14.15;;;8.73;;
40745;SDS011;26454;51.164;4.488;2023-02-28T07:42:40;11.93;;;8.13;;
40745;SDS011;26454;51.164;4.488;2023-02-28T07:45:07;10.93;;;7.72;;
40745;SDS011;26454;51.164;4.488;2023-02-28T07:47:37;11.23;;;8.70;;
40745;SDS011;26454;51.164;4.488;2023-02-28T07:50:04;13.60;;;9.27;;
40745;SDS011;26454;51.164;4.488;2023-02-28T07:52:31;17.80;;;9.68;;
40745;SDS011;26454;51.164;4.488;2023-02-28T07:54:57;9.88;;;7.65;;
40745;SDS011;26454;51.164;4.488;2023-02-28T07:57:26;10.55;;;7.97;;
40745;SDS011;26454;51.164;4.488;2023-02-28T07:59:53;12.32;;;7.90;;
40745;SDS011;26454;51.164;4.488;2023-02-28T08:02:19;12.05;;;8.88;;
40745;SDS011;26454;51.164;4.488;2023-02-28T08:04:54;13.77;;;7.95;;
40745;SDS011;26454;51.164;4.488;2023-02-28T08:07:21;9.50;;;7.70;;
40745;SDS011;26454;51.164;4.488;2023-02-28T08:09:48;10.40;;;7.90;;
40745;SDS011;26454;51.164;4.488;2023-02-28T08:12:14;9.50;;;6.78;;
40745;SDS011;26454;51.164;4.488;2023-02-28T08:14:40;11.02;;;6.72;;
40745;SDS011;26454;51.164;4.488;2023-02-28T08:17:09;11.30;;;6.72;;
40745;SDS011;26454;51.164;4.488;2023-02-28T08:19:38;10.88;;;7.75;;
40745;SDS011;26454;51.164;4.488;2023-02-28T08:22:08;8.05;;;6.38;;
40745;SDS011;26454;51.164;4.488;2023-02-28T08:24:36;9.80;;;6.93;;
40745;SDS011;26454;51.164;4.488;2023-02-28T08:27:04;8.70;;;7.40;;
40745;SDS011;26454;51.164;4.488;2023-02-28T08:29:37;11.27;;;7.03;;
40745;SDS011;26454;51.164;4.488;2023-02-28T08:32:12;13.30;;;6.80;;
40745;SDS011;26454;51.164;4.488;2023-02-28T08:34:39;10.60;;;7.05;;
40745;SDS011;26454;51.164;4.488;2023-02-28T08:37:09;7.70;;;5.60;;
40745;SDS011;26454;51.164;4.488;2023-02-28T08:39:37;8.98;;;5.43;;
40745;SDS011;26454;51.164;4.488;2023-02-28T08:42:03;11.40;;;5.75;;
40745;SDS011;26454;51.164;4.488;2023-02-28T08:46:59;7.43;;;5.97;;
40745;SDS011;26454;51.164;4.488;2023-02-28T08:49:31;10.88;;;5.40;;
40745;SDS011;26454;51.164;4.488;2023-02-28T08:51:57;11.45;;;5.00;;
40745;SDS011;26454;51.164;4.488;2023-02-28T08:54:26;5.60;;;4.43;;
40745;SDS011;26454;51.164;4.488;2023-02-28T08:56:55;9.55;;;5.30;;
40745;SDS011;26454;51.164;4.488;2023-02-28T08:59:21;7.05;;;5.13;;
40745;SDS011;26454;51.164;4.488;2023-02-28T09:01:50;7.80;;;4.72;;
40745;SDS011;26454;51.164;4.488;2023-02-28T09:04:23;6.47;;;4.88;;
40745;SDS011;26454;51.164;4.488;2023-02-28T09:06:52;6.80;;;4.30;;
40745;SDS011;26454;51.164;4.488;2023-02-28T09:11:55;5.30;;;4.28;;
40745;SDS011;26454;51.164;4.488;2023-02-28T09:14:26;5.40;;;4.43;;
40745;SDS011;26454;51.164;4.488;2023-02-28T09:16:56;5.32;;;4.65;;
40745;SDS011;26454;51.164;4.488;2023-02-28T09:19:22;6.45;;;4.40;;
40745;SDS011;26454;51.164;4.488;2023-02-28T09:22:25;4.40;;;4.00;;
40745;SDS011;26454;51.164;4.488;2023-02-28T09:25:08;5.07;;;4.43;;
40745;SDS011;26454;51.164;4.488;2023-02-28T09:27:37;7.45;;;3.97;;
40745;SDS011;26454;51.164;4.488;2023-02-28T09:30:05;4.20;;;3.80;;
40745;SDS011;26454;51.164;4.488;2023-02-28T09:32:50;6.18;;;3.38;;
40745;SDS011;26454;51.164;4.488;2023-02-28T09:35:22;4.20;;;3.10;;
40745;SDS011;26454;51.164;4.488;2023-02-28T09:37:54;4.03;;;3.63;;
40745;SDS011;26454;51.164;4.488;2023-02-28T09:40:22;3.70;;;3.30;;
40745;SDS011;26454;51.164;4.488;2023-02-28T09:42:50;3.38;;;3.08;;
40745;SDS011;26454;51.164;4.488;2023-02-28T09:45:22;5.85;;;3.15;;
40745;SDS011;26454;51.164;4.488;2023-02-28T09:47:54;3.45;;;3.10;;
40745;SDS011;26454;51.164;4.488;2023-02-28T09:50:28;6.00;;;3.28;;
40745;SDS011;26454;51.164;4.488;2023-02-28T09:52:56;5.63;;;3.25;;
40745;SDS011;26454;51.164;4.488;2023-02-28T09:55:27;7.95;;;3.10;;
40745;SDS011;26454;51.164;4.488;2023-02-28T09:57:54;3.45;;;3.03;;
40745;SDS011;26454;51.164;4.488;2023-02-28T10:00:24;3.72;;;2.58;;
40745;SDS011;26454;51.164;4.488;2023-02-28T10:05:41;3.55;;;2.75;;
40745;SDS011;26454;51.164;4.488;2023-02-28T10:10:44;2.75;;;2.33;;
40745;SDS011;26454;51.164;4.488;2023-02-28T10:13:14;2.85;;;2.58;;
40745;SDS011;26454;51.164;4.488;2023-02-28T10:15:42;2.83;;;2.60;;
40745;SDS011;26454;51.164;4.488;2023-02-28T10:18:15;2.83;;;2.53;;
40745;SDS011;26454;51.164;4.488;2023-02-28T10:20:51;3.92;;;2.67;;
40745;SDS011;26454;51.164;4.488;2023-02-28T10:23:24;2.67;;;2.47;;
40745;SDS011;26454;51.164;4.488;2023-02-28T10:25:57;4.03;;;3.30;;
40745;SDS011;26454;51.164;4.488;2023-02-28T10:28:26;3.13;;;2.83;;
40745;SDS011;26454;51.164;4.488;2023-02-28T10:30:54;2.80;;;2.50;;
40745;SDS011;26454;51.164;4.488;2023-02-28T10:35:55;3.47;;;2.53;;
40745;SDS011;26454;51.164;4.488;2023-02-28T10:38:22;2.55;;;2.35;;
40745;SDS011;26454;51.164;4.488;2023-02-28T10:40:51;4.00;;;2.35;;
40745;SDS011;26454;51.164;4.488;2023-02-28T10:43:19;4.18;;;2.63;;
40745;SDS011;26454;51.164;4.488;2023-02-28T10:45:53;2.55;;;2.35;;
40745;SDS011;26454;51.164;4.488;2023-02-28T10:48:38;4.80;;;2.65;;
40745;SDS011;26454;51.164;4.488;2023-02-28T10:51:08;2.70;;;2.50;;
40745;SDS011;26454;51.164;4.488;2023-02-28T10:53:39;3.25;;;2.83;;
40745;SDS011;26454;51.164;4.488;2023-02-28T10:56:15;5.55;;;2.30;;
40745;SDS011;26454;51.164;4.488;2023-02-28T10:58:52;2.58;;;2.13;;
40745;SDS011;26454;51.164;4.488;2023-02-28T11:01:20;7.00;;;2.50;;
40745;SDS011;26454;51.164;4.488;2023-02-28T11:03:49;3.03;;;2.30;;
40745;SDS011;26454;51.164;4.488;2023-02-28T11:06:18;5.75;;;2.72;;
40745;SDS011;26454;51.164;4.488;2023-02-28T11:08:45;2.45;;;2.25;;
40745;SDS011;26454;51.164;4.488;2023-02-28T11:11:13;2.30;;;2.10;;
40745;SDS011;26454;51.164;4.488;2023-02-28T11:13:39;4.88;;;2.55;;
40745;SDS011;26454;51.164;4.488;2023-02-28T11:16:09;5.50;;;2.30;;
40745;SDS011;26454;51.164;4.488;2023-02-28T11:18:41;2.72;;;2.45;;
40745;SDS011;26454;51.164;4.488;2023-02-28T11:21:09;2.80;;;2.45;;
40745;SDS011;26454;51.164;4.488;2023-02-28T11:23:41;4.65;;;2.47;;
40745;SDS011;26454;51.164;4.488;2023-02-28T11:26:12;4.50;;;2.30;;
40745;SDS011;26454;51.164;4.488;2023-02-28T11:28:39;9.55;;;2.65;;
40745;SDS011;26454;51.164;4.488;2023-02-28T11:31:14;2.88;;;2.60;;
40745;SDS011;26454;51.164;4.488;2023-02-28T11:33:46;3.65;;;2.22;;
40745;SDS011;26454;51.164;4.488;2023-02-28T11:36:24;2.50;;;2.10;;
40745;SDS011;26454;51.164;4.488;2023-02-28T11:38:50;5.70;;;2.75;;
40745;SDS011;26454;51.164;4.488;2023-02-28T11:46:42;10.38;;;2.70;;
40745;SDS011;26454;51.164;4.488;2023-02-28T11:49:17;2.97;;;2.63;;
40745;SDS011;26454;51.164;4.488;2023-02-28T11:51:48;2.40;;;2.17;;
40745;SDS011;26454;51.164;4.488;2023-02-28T11:59:55;5.25;;;2.17;;
40745;SDS011;26454;51.164;4.488;2023-02-28T12:05:04;5.10;;;2.20;;
40745;SDS011;26454;51.164;4.488;2023-02-28T12:10:25;2.75;;;2.25;;
40745;SDS011;26454;51.164;4.488;2023-02-28T12:15:39;3.03;;;2.65;;
40745;SDS011;26454;51.164;4.488;2023-02-28T12:18:20;4.45;;;2.50;;
40745;SDS011;26454;51.164;4.488;2023-02-28T12:21:01;2.97;;;2.50;;
40745;SDS011;26454;51.164;4.488;2023-02-28T12:23:38;4.60;;;2.60;;
40745;SDS011;26454;51.164;4.488;2023-02-28T12:26:23;4.03;;;2.40;;
40745;SDS011;26454;51.164;4.488;2023-02-28T12:28:53;4.93;;;2.53;;
40745;SDS011;26454;51.164;4.488;2023-02-28T12:31:21;4.95;;;2.63;;
40745;SDS011;26454;51.164;4.488;2023-02-28T12:36:17;3.88;;;2.70;;
40745;SDS011;26454;51.164;4.488;2023-02-28T12:41:13;2.60;;;2.40;;
40745;SDS011;26454;51.164;4.488;2023-02-28T12:43:41;2.63;;;2.20;;
40745;SDS011;26454;51.164;4.488;2023-02-28T12:46:17;10.88;;;2.72;;
40745;SDS011;26454;51.164;4.488;2023-02-28T12:48:49;4.60;;;2.70;;
40745;SDS011;26454;51.164;4.488;2023-02-28T12:51:16;4.68;;;2.65;;
40745;SDS011;26454;51.164;4.488;2023-02-28T12:53:58;7.25;;;3.40;;
40745;SDS011;26454;51.164;4.488;2023-02-28T12:56:33;3.58;;;2.45;;
40745;SDS011;26454;51.164;4.488;2023-02-28T12:59:01;4.47;;;2.28;;
40745;SDS011;26454;51.164;4.488;2023-02-28T13:01:37;6.35;;;2.55;;
40745;SDS011;26454;51.164;4.488;2023-02-28T13:09:30;6.40;;;2.72;;
40745;SDS011;26454;51.164;4.488;2023-02-28T13:11:56;2.78;;;2.58;;
40745;SDS011;26454;51.164;4.488;2023-02-28T13:14:25;2.97;;;2.67;;
40745;SDS011;26454;51.164;4.488;2023-02-28T13:19:33;6.53;;;2.67;;
40745;SDS011;26454;51.164;4.488;2023-02-28T13:22:01;2.80;;;2.40;;
40745;SDS011;26454;51.164;4.488;2023-02-28T13:27:10;6.32;;;2.83;;
40745;SDS011;26454;51.164;4.488;2023-02-28T13:29:39;5.30;;;2.95;;
40745;SDS011;26454;51.164;4.488;2023-02-28T13:35:12;4.35;;;2.28;;
40745;SDS011;26454;51.164;4.488;2023-02-28T13:37:43;3.63;;;2.42;;
40745;SDS011;26454;51.164;4.488;2023-02-28T13:43:02;3.33;;;2.92;;
40745;SDS011;26454;51.164;4.488;2023-02-28T13:45:34;3.72;;;3.33;;
40745;SDS011;26454;51.164;4.488;2023-02-28T13:48:15;3.70;;;3.00;;
40745;SDS011;26454;51.164;4.488;2023-02-28T13:50:43;2.63;;;2.40;;
40745;SDS011;26454;51.164;4.488;2023-02-28T13:56:19;6.30;;;2.95;;
40745;SDS011;26454;51.164;4.488;2023-02-28T13:58:52;5.43;;;3.72;;
40745;SDS011;26454;51.164;4.488;2023-02-28T14:04:14;3.55;;;3.05;;
40745;SDS011;26454;51.164;4.488;2023-02-28T14:06:51;6.35;;;3.05;;
40745;SDS011;26454;51.164;4.488;2023-02-28T14:09:23;2.80;;;2.50;;
40745;SDS011;26454;51.164;4.488;2023-02-28T14:11:51;4.05;;;2.70;;
40745;SDS011;26454;51.164;4.488;2023-02-28T14:16:53;3.97;;;3.28;;
40745;SDS011;26454;51.164;4.488;2023-02-28T14:19:25;18.70;;;4.55;;
40745;SDS011;26454;51.164;4.488;2023-02-28T14:24:42;4.57;;;3.42;;
40745;SDS011;26454;51.164;4.488;2023-02-28T14:29:59;4.25;;;3.28;;
40745;SDS011;26454;51.164;4.488;2023-02-28T14:35:29;3.25;;;2.90;;
40745;SDS011;26454;51.164;4.488;2023-02-28T14:38:04;3.35;;;3.00;;
40745;SDS011;26454;51.164;4.488;2023-02-28T14:40:33;4.70;;;3.38;;
40745;SDS011;26454;51.164;4.488;2023-02-28T14:43:01;5.80;;;3.70;;
40745;SDS011;26454;51.164;4.488;2023-02-28T14:45:33;3.47;;;2.88;;
40745;SDS011;26454;51.164;4.488;2023-02-28T14:48:01;5.35;;;2.88;;
40745;SDS011;26454;51.164;4.488;2023-02-28T14:50:30;3.85;;;3.00;;
40745;SDS011;26454;51.164;4.488;2023-02-28T14:52:59;3.92;;;3.28;;
40745;SDS011;26454;51.164;4.488;2023-02-28T14:55:28;7.10;;;3.38;;
40745;SDS011;26454;51.164;4.488;2023-02-28T14:57:56;7.25;;;3.28;;
40745;SDS011;26454;51.164;4.488;2023-02-28T15:00:24;6.35;;;3.10;;
40745;SDS011;26454;51.164;4.488;2023-02-28T15:02:55;6.68;;;3.08;;
40745;SDS011;26454;51.164;4.488;2023-02-28T15:05:24;3.03;;;2.72;;
40745;SDS011;26454;51.164;4.488;2023-02-28T15:08:00;4.15;;;3.10;;
40745;SDS011;26454;51.164;4.488;2023-02-28T15:10:27;5.13;;;3.17;;
40745;SDS011;26454;51.164;4.488;2023-02-28T15:12:54;4.03;;;3.00;;
40745;SDS011;26454;51.164;4.488;2023-02-28T15:15:25;3.97;;;2.92;;
40745;SDS011;26454;51.164;4.488;2023-02-28T15:17:52;5.63;;;3.40;;
40745;SDS011;26454;51.164;4.488;2023-02-28T15:20:20;8.63;;;3.55;;
40745;SDS011;26454;51.164;4.488;2023-02-28T15:22:47;3.97;;;3.42;;
40745;SDS011;26454;51.164;4.488;2023-02-28T15:25:17;5.30;;;3.42;;
40745;SDS011;26454;51.164;4.488;2023-02-28T15:27:45;6.47;;;3.40;;
40745;SDS011;26454;51.164;4.488;2023-02-28T15:30:15;8.27;;;4.38;;
40745;SDS011;26454;51.164;4.488;2023-02-28T15:32:42;2.90;;;2.70;;
40745;SDS011;26454;51.164;4.488;2023-02-28T15:37:57;10.00;;;3.80;;
40745;SDS011;26454;51.164;4.488;2023-02-28T15:45:41;3.97;;;2.97;;
40745;SDS011;26454;51.164;4.488;2023-02-28T15:50:37;4.90;;;3.10;;
40745;SDS011;26454;51.164;4.488;2023-02-28T15:53:03;4.13;;;2.88;;
40745;SDS011;26454;51.164;4.488;2023-02-28T15:55:29;6.20;;;3.53;;
40745;SDS011;26454;51.164;4.488;2023-02-28T15:57:56;3.63;;;2.78;;
40745;SDS011;26454;51.164;4.488;2023-02-28T16:00:25;6.57;;;3.33;;
40745;SDS011;26454;51.164;4.488;2023-02-28T16:02:52;3.65;;;3.35;;
40745;SDS011;26454;51.164;4.488;2023-02-28T16:05:23;6.30;;;3.45;;
40745;SDS011;26454;51.164;4.488;2023-02-28T16:07:53;3.67;;;3.35;;
40745;SDS011;26454;51.164;4.488;2023-02-28T16:10:20;4.43;;;3.35;;
40745;SDS011;26454;51.164;4.488;2023-02-28T16:12:48;6.28;;;3.42;;
40745;SDS011;26454;51.164;4.488;2023-02-28T16:15:19;4.32;;;3.38;;
40745;SDS011;26454;51.164;4.488;2023-02-28T16:17:46;4.55;;;2.83;;
40745;SDS011;26454;51.164;4.488;2023-02-28T16:20:13;3.95;;;3.15;;
40745;SDS011;26454;51.164;4.488;2023-02-28T16:22:39;6.43;;;3.60;;
40745;SDS011;26454;51.164;4.488;2023-02-28T16:25:07;4.20;;;3.33;;